Albany, Missouri
Current Conditions -  °F | °C
As of 1:53 PM on Saturday 25 Oct 2014 (Local Time) from KLWD Reporting Station
Clear Clear  
Wind Chill: 23°   Ceiling: Unl
Heat Index: 23°   Visibility: 10mi
Dew Point:   Wind: 5mph
Humidity: 38%   Direction: 60°ENE
Pressure: 30.08"   Gusts: NA
Location:  40.25°N, 94.33°W
Report Text: KLWD 251853Z AUTO 06004KT 10SM CLR 23/08 A3008 RMK AO2 SLP182 T02280078
Loading
Personal Weather Stations






























Interactive Weather Map
Tropical Storm Tracking
New forecast layout! Learn more

10-Day Weather Forecast

Advertisements
Track Severe Weather on mobile